createdAt,value
2023-02-12T00:01:29.580Z,99307.38
2023-02-12T00:03:58.696Z,99306.59
2023-02-12T00:06:27.759Z,99315.75
2023-02-12T00:08:57.731Z,99307.38
2023-02-12T00:11:28.915Z,99313.72
2023-02-12T00:13:58.568Z,99311.69
2023-02-12T00:16:29.689Z,99327.22
2023-02-12T00:19:00.242Z,99328.75
2023-02-12T00:21:30.608Z,99324.19
2023-02-12T00:23:59.654Z,99334.88
2023-02-12T00:26:27.944Z,99333.88
2023-02-12T00:28:56.848Z,99334.13
2023-02-12T00:31:28.460Z,99344.34
2023-02-12T00:33:57.245Z,99339.22
2023-02-12T00:36:27.646Z,99344.59
2023-02-12T00:38:57.950Z,99340.25
2023-02-12T00:41:27.374Z,99348.41
2023-02-12T00:43:55.794Z,99355.25
2023-02-12T00:46:24.676Z,99359.63
2023-02-12T00:48:53.153Z,99363.69
2023-02-12T00:51:21.629Z,99362.91
2023-02-12T00:53:49.960Z,99364.44
2023-02-12T00:56:18.258Z,99371.31
2023-02-12T00:58:46.584Z,99374.13
2023-02-12T01:01:15.170Z,99379.22
2023-02-12T01:03:43.604Z,99387.13
2023-02-12T01:06:11.968Z,99384.31
2023-02-12T01:08:40.300Z,99385.31
2023-02-12T01:11:08.826Z,99385.56
2023-02-12T01:13:37.300Z,99391.16
2023-02-12T01:16:17.965Z,99388.06
2023-02-12T01:18:47.253Z,99391.13
2023-02-12T01:21:21.385Z,99393.38
2023-02-12T01:23:50.489Z,99398.72
2023-02-12T01:26:20.543Z,99393.84
2023-02-12T01:28:54.645Z,99413.22
2023-02-12T01:31:25.661Z,99409.09
2023-02-12T01:33:56.897Z,99414.94
2023-02-12T01:36:25.823Z,99414.41
2023-02-12T01:38:54.138Z,99423.56
2023-02-12T01:41:25.820Z,99420.97
2023-02-12T01:44:15.151Z,99427.03
2023-02-12T01:46:44.960Z,99422.94
2023-02-12T01:49:21.779Z,99437.97
2023-02-12T01:51:55.479Z,99438.69
2023-02-12T01:54:26.849Z,99432.78
2023-02-12T01:56:56.107Z,99439.88
2023-02-12T01:59:26.011Z,99438.00
2023-02-12T02:01:56.138Z,99441.78
2023-02-12T02:04:33.781Z,99441.22
2023-02-12T02:07:05.561Z,99446.53
2023-02-12T02:09:37.795Z,99453.88
2023-02-12T02:12:25.457Z,99452.03
2023-02-12T02:14:57.617Z,99455.25
2023-02-12T02:17:43.952Z,99451.34
2023-02-12T02:20:18.521Z,99450.25
2023-02-12T02:22:55.794Z,99461.16
2023-02-12T02:26:01.066Z,99457.22
2023-02-12T02:28:41.164Z,99455.88
2023-02-12T02:31:48.245Z,99457.06
2023-02-12T02:34:16.511Z,99460.03
2023-02-12T02:37:18.587Z,99463.25
2023-02-12T02:39:57.096Z,99465.50
2023-02-12T02:42:34.227Z,99463.59
2023-02-12T02:45:13.745Z,99464.50
2023-02-12T02:47:50.893Z,99467.00
2023-02-12T02:50:24.186Z,99478.41
2023-02-12T02:53:20.774Z,99474.44
2023-02-12T02:55:54.810Z,99474.84
2023-02-12T02:58:46.478Z,99471.09
2023-02-12T03:01:24.397Z,99474.81
2023-02-12T03:04:03.805Z,99476.50
2023-02-12T03:06:46.072Z,99471.78
2023-02-12T03:09:29.647Z,99467.78
2023-02-12T03:12:04.809Z,99458.69
2023-02-12T03:14:41.259Z,99462.94
2023-02-12T03:17:19.708Z,99449.50
2023-02-12T03:20:08.523Z,99456.03
2023-02-12T03:22:42.055Z,99456.13
2023-02-12T03:25:17.882Z,99454.97
2023-02-12T03:27:54.267Z,99455.13
2023-02-12T03:30:23.862Z,99455.97
2023-02-12T03:33:24.143Z,99438.41
2023-02-12T03:36:09.122Z,99442.84
2023-02-12T03:38:37.368Z,99441.97
2023-02-12T03:41:22.041Z,99438.50
2023-02-12T03:44:14.529Z,99430.13
2023-02-12T03:47:05.269Z,99416.66
2023-02-12T03:49:59.303Z,99425.44
2023-02-12T03:52:28.275Z,99424.78
2023-02-12T03:54:56.718Z,99424.88
2023-02-12T03:57:32.298Z,99420.63
2023-02-12T04:00:03.258Z,99422.78
2023-02-12T04:02:31.855Z,99415.47
2023-02-12T04:05:05.435Z,99409.91
2023-02-12T04:07:34.987Z,99393.00
2023-02-12T04:10:03.748Z,99398.53
2023-02-12T04:12:41.184Z,99400.69
2023-02-12T04:15:18.556Z,99383.81
2023-02-12T04:18:10.847Z,99382.00
2023-02-12T04:20:51.034Z,99370.53
2023-02-12T04:23:36.509Z,99372.69
2023-02-12T04:26:30.871Z,99368.59
2023-02-12T04:29:27.543Z,99360.91
2023-02-12T04:32:01.964Z,99364.16
2023-02-12T04:34:48.846Z,99355.75
2023-02-12T04:37:19.393Z,99359.94
2023-02-12T04:39:49.681Z,99354.88
2023-02-12T04:42:18.061Z,99347.91
2023-02-12T04:44:46.978Z,99341.56
2023-02-12T04:47:17.129Z,99339.88
2023-02-12T04:49:45.663Z,99331.97
2023-02-12T04:52:14.010Z,99335.59
2023-02-12T04:54:42.324Z,99329.44
2023-02-12T04:57:11.110Z,99335.88
2023-02-12T04:59:39.382Z,99321.72
2023-02-12T05:02:07.821Z,99316.84
2023-02-12T05:04:36.151Z,99307.78
2023-02-12T05:07:04.428Z,99307.03
2023-02-12T05:09:32.718Z,99310.09
2023-02-12T05:12:01.034Z,99298.78
2023-02-12T05:14:29.446Z,99299.72
2023-02-12T05:16:57.861Z,99279.84
2023-02-12T05:19:26.464Z,99280.81
2023-02-12T05:21:54.757Z,99275.13
2023-02-12T05:24:23.181Z,99274.19
2023-02-12T05:26:52.809Z,99271.53
2023-02-12T05:29:21.190Z,99256.00
2023-02-12T05:31:49.579Z,99255.09
2023-02-12T05:34:17.900Z,99252.63
2023-02-12T05:36:46.220Z,99243.13
2023-02-12T05:39:14.535Z,99233.84
2023-02-12T05:41:42.816Z,99227.75
2023-02-12T05:44:12.960Z,99223.59
2023-02-12T05:46:41.335Z,99221.31
2023-02-12T05:49:11.018Z,99218.25
2023-02-12T05:51:39.492Z,99211.78
2023-02-12T05:54:08.666Z,99200.25
2023-02-12T05:56:43.034Z,99198.56
2023-02-12T05:59:17.480Z,99190.06
2023-02-12T06:01:47.320Z,99179.28
2023-02-12T06:04:19.242Z,99177.00
2023-02-12T06:06:47.785Z,99175.69
2023-02-12T06:09:16.271Z,99167.34
2023-02-12T06:11:45.062Z,99161.66
2023-02-12T06:14:17.644Z,99156.56
2023-02-12T06:16:48.126Z,99149.00
2023-02-12T06:19:16.660Z,99141.25
2023-02-12T06:21:45.045Z,99135.41
2023-02-12T06:24:17.745Z,99139.22
2023-02-12T06:26:47.211Z,99129.59
2023-02-12T06:29:15.568Z,99133.41
2023-02-12T06:31:44.435Z,99129.81
2023-02-12T06:34:14.800Z,99123.22
2023-02-12T06:36:48.455Z,99118.84
2023-02-12T06:39:18.099Z,99119.63
2023-02-12T06:41:46.661Z,99105.03
2023-02-12T06:44:15.138Z,99107.25
2023-02-12T06:46:43.629Z,99099.44
2023-02-12T06:49:15.205Z,99103.34
2023-02-12T06:51:43.723Z,99095.16
2023-02-12T06:54:16.936Z,99089.03
2023-02-12T06:56:46.143Z,99081.97
2023-02-12T06:59:16.857Z,99082.06
2023-02-12T07:01:45.276Z,99076.69
2023-02-12T07:04:13.936Z,99065.25
2023-02-12T07:06:42.537Z,99064.63
2023-02-12T07:09:11.254Z,99064.56
2023-02-12T07:11:39.854Z,99064.31
2023-02-12T07:14:08.870Z,99064.66
2023-02-12T07:16:37.262Z,99062.72
2023-02-12T07:19:05.609Z,99055.88
2023-02-12T07:21:34.474Z,99046.75
2023-02-12T07:24:02.809Z,99044.81
2023-02-12T07:26:31.164Z,99037.63
2023-02-12T07:29:00.190Z,99043.16
2023-02-12T07:31:28.575Z,99040.72
2023-02-12T07:33:58.677Z,99028.44
2023-02-12T07:36:31.144Z,99029.78
2023-02-12T07:39:00.019Z,99025.09
2023-02-12T07:41:31.106Z,99022.50
2023-02-12T07:44:01.849Z,99013.22
2023-02-12T07:46:36.106Z,99014.72
2023-02-12T07:49:07.087Z,99014.16
2023-02-12T07:51:36.706Z,99004.28
2023-02-12T07:54:05.575Z,99006.53
2023-02-12T07:56:36.373Z,99003.84
2023-02-12T07:59:13.523Z,98998.50
2023-02-12T08:01:48.745Z,98992.97
2023-02-12T08:04:20.259Z,98984.44
2023-02-12T08:06:50.807Z,98987.47
2023-02-12T08:09:25.097Z,98988.97
2023-02-12T08:11:54.305Z,98981.19
2023-02-12T08:14:23.681Z,98975.50
2023-02-12T08:16:52.948Z,98976.41
2023-02-12T08:19:25.794Z,98972.97
2023-02-12T08:21:56.396Z,98975.81
2023-02-12T08:24:25.935Z,98971.66
2023-02-12T08:26:54.409Z,98974.47
2023-02-12T08:29:26.182Z,98974.31
2023-02-12T08:32:00.030Z,98972.22
2023-02-12T08:34:33.350Z,98962.63
2023-02-12T08:37:02.533Z,98981.78
2023-02-12T08:39:31.572Z,98981.03
2023-02-12T08:42:02.209Z,98983.69
2023-02-12T08:44:31.060Z,98976.34
2023-02-12T08:46:59.601Z,98981.69
2023-02-12T08:49:30.632Z,98976.44
2023-02-12T08:52:00.825Z,98975.53
2023-02-12T08:54:31.497Z,98976.50
2023-02-12T08:57:02.433Z,98977.50
2023-02-12T08:59:31.753Z,98978.69
2023-02-12T09:02:00.446Z,98976.22
2023-02-12T09:04:30.407Z,98981.00
2023-02-12T09:06:59.048Z,98973.06
2023-02-12T09:09:27.367Z,98974.38
2023-02-12T09:11:55.670Z,98981.41
2023-02-12T09:14:26.757Z,98967.78
2023-02-12T09:16:56.044Z,98972.13
2023-02-12T09:19:24.847Z,98967.19
2023-02-12T09:21:57.160Z,98965.13
2023-02-12T09:24:28.468Z,98969.13
2023-02-12T09:26:57.180Z,98962.09
2023-02-12T09:29:25.773Z,98971.97
2023-02-12T09:31:54.361Z,98968.19
2023-02-12T09:34:22.891Z,98974.44
2023-02-12T09:36:51.219Z,98980.72
2023-02-12T09:39:19.570Z,98980.53
2023-02-12T09:42:02.349Z,98978.13
2023-02-12T09:44:36.383Z,98989.16
2023-02-12T09:47:14.938Z,98989.72
2023-02-12T09:49:58.419Z,98991.66
2023-02-12T09:52:29.358Z,98992.81
2023-02-12T09:54:58.129Z,98988.13
2023-02-12T09:57:37.118Z,98987.75
2023-02-12T10:00:07.715Z,98998.03
2023-02-12T10:02:41.405Z,98994.84
2023-02-12T10:05:31.172Z,98998.63
2023-02-12T10:08:25.309Z,99005.31
2023-02-12T10:10:54.863Z,98995.50
2023-02-12T10:13:32.857Z,99002.00
2023-02-12T10:16:39.412Z,98999.22
2023-02-12T10:19:13.944Z,98999.44
2023-02-12T10:21:49.386Z,98998.16
2023-02-12T10:24:17.657Z,98999.50
2023-02-12T10:26:50.550Z,99010.31
2023-02-12T10:29:28.490Z,99008.28
2023-02-12T10:32:03.064Z,99010.94
2023-02-12T10:34:37.116Z,99010.22
2023-02-12T10:37:34.837Z,99007.63
2023-02-12T10:40:18.900Z,99009.72
2023-02-12T10:42:50.793Z,99013.13
2023-02-12T10:45:23.737Z,99025.81
2023-02-12T10:47:55.794Z,99019.41
2023-02-12T10:50:59.470Z,99016.97
2023-02-12T10:53:35.277Z,99018.50
2023-02-12T10:56:20.280Z,99018.34
2023-02-12T10:58:51.834Z,99024.00
2023-02-12T11:01:26.892Z,99026.06
2023-02-12T11:04:00.058Z,99031.72
2023-02-12T11:06:34.454Z,99034.91
2023-02-12T11:09:02.856Z,99034.91
2023-02-12T11:11:33.000Z,99040.59
2023-02-12T11:14:22.512Z,99044.16
2023-02-12T11:16:56.569Z,99043.91
2023-02-12T11:19:35.939Z,99045.41
2023-02-12T11:22:19.779Z,99047.47
2023-02-12T11:25:00.593Z,99049.50
2023-02-12T11:27:31.990Z,99048.19
2023-02-12T11:30:17.333Z,99053.06
2023-02-12T11:32:45.936Z,99053.78
2023-02-12T11:35:19.230Z,99054.50
2023-02-12T11:37:48.622Z,99058.03
2023-02-12T11:40:29.961Z,99060.06
2023-02-12T11:43:10.461Z,99062.09
2023-02-12T11:45:45.939Z,99064.31
2023-02-12T11:48:48.271Z,99071.44
2023-02-12T11:51:33.063Z,99072.94
2023-02-12T11:54:07.185Z,99072.84
2023-02-12T11:56:45.184Z,99071.50
2023-02-12T11:59:42.701Z,99074.44
2023-02-12T12:02:27.298Z,99077.03
2023-02-12T12:05:04.397Z,99078.47
2023-02-12T12:07:38.722Z,99085.56
2023-02-12T12:10:42.202Z,99091.16
2023-02-12T12:13:35.078Z,99097.31
2023-02-12T12:16:33.404Z,99091.34
2023-02-12T12:19:41.360Z,99106.69
2023-02-12T12:22:37.725Z,99106.63
2023-02-12T12:25:36.189Z,99117.06
2023-02-12T12:28:23.093Z,99113.41
2023-02-12T12:31:09.513Z,99121.78
2023-02-12T12:33:43.590Z,99124.72
2023-02-12T12:36:14.865Z,99123.31
2023-02-12T12:39:18.286Z,99126.25
2023-02-12T12:42:23.716Z,99122.06
2023-02-12T12:45:16.781Z,99134.94
2023-02-12T12:48:07.193Z,99132.75
2023-02-12T12:51:05.819Z,99140.78
2023-02-12T12:53:58.718Z,99145.03
2023-02-12T12:56:35.678Z,99142.34
2023-02-12T13:00:01.744Z,99148.09
2023-02-12T13:02:44.786Z,99157.38
2023-02-12T13:05:52.603Z,99156.94
2023-02-12T13:08:39.177Z,99152.94
2023-02-12T13:11:30.722Z,99160.41
2023-02-12T13:14:13.760Z,99158.69
2023-02-12T13:16:50.533Z,99163.88
2023-02-12T13:19:48.385Z,99171.38
2023-02-12T13:22:32.028Z,99167.31
2023-02-12T13:25:28.279Z,99182.25
2023-02-12T13:27:59.524Z,99175.97
2023-02-12T13:30:40.816Z,99179.63
2023-02-12T13:33:18.074Z,99175.41
2023-02-12T13:35:51.016Z,99179.81
2023-02-12T13:38:26.904Z,99184.44
2023-02-12T13:41:01.431Z,99182.72
2023-02-12T13:43:32.419Z,99180.22
2023-02-12T13:46:30.313Z,99177.50
2023-02-12T13:49:13.556Z,99183.44
2023-02-12T13:51:57.870Z,99187.34
2023-02-12T13:54:58.277Z,99197.59
2023-02-12T13:57:26.720Z,99195.88
2023-02-12T13:59:56.951Z,99195.38
2023-02-12T14:02:30.611Z,99192.31
2023-02-12T14:05:01.864Z,99187.00
2023-02-12T14:07:57.638Z,99194.25
2023-02-12T14:10:31.151Z,99190.97
2023-02-12T14:13:24.357Z,99192.06
2023-02-12T14:15:59.564Z,99187.28
2023-02-12T14:18:35.717Z,99193.19
2023-02-12T14:21:13.214Z,99187.84
2023-02-12T14:23:43.491Z,99187.41
2023-02-12T14:26:25.658Z,99192.06
2023-02-12T14:29:08.103Z,99193.34
2023-02-12T14:31:39.062Z,99195.94
2023-02-12T14:34:07.478Z,99204.91
2023-02-12T14:36:43.665Z,99202.94
2023-02-12T14:39:30.352Z,99201.19
2023-02-12T14:42:38.528Z,99209.38
2023-02-12T14:45:07.033Z,99205.56
2023-02-12T14:47:35.276Z,99210.44
2023-02-12T14:50:13.908Z,99206.84
2023-02-12T14:52:49.888Z,99209.13
2023-02-12T14:55:29.456Z,99206.84
2023-02-12T14:58:04.642Z,99206.84
2023-02-12T15:00:40.715Z,99207.38
2023-02-12T15:03:15.316Z,99212.78
2023-02-12T15:06:05.415Z,99211.03
2023-02-12T15:08:46.094Z,99208.53
2023-02-12T15:11:35.198Z,99213.66
2023-02-12T15:14:29.369Z,99221.88
2023-02-12T15:17:03.820Z,99209.63
2023-02-12T15:19:44.348Z,99211.44
2023-02-12T15:22:31.117Z,99209.16
2023-02-12T15:25:18.288Z,99221.44
2023-02-12T15:27:49.795Z,99220.22
2023-02-12T15:30:25.904Z,99216.94
2023-02-12T15:32:57.998Z,99216.25
2023-02-12T15:35:32.372Z,99214.25
2023-02-12T15:38:02.182Z,99213.81
2023-02-12T15:40:32.741Z,99207.69
2023-02-12T15:43:07.286Z,99208.75
2023-02-12T15:45:37.804Z,99211.84
2023-02-12T15:48:19.263Z,99208.56
2023-02-12T15:50:52.888Z,99206.81
2023-02-12T15:53:23.455Z,99210.69
2023-02-12T15:55:53.070Z,99207.13
2023-02-12T15:58:53.381Z,99210.44
2023-02-12T16:01:28.233Z,99209.69
2023-02-12T16:04:08.755Z,99220.94
2023-02-12T16:06:38.006Z,99213.03
2023-02-12T16:09:15.668Z,99210.72
2023-02-12T16:11:47.185Z,99208.44
2023-02-12T16:14:55.624Z,99213.78
2023-02-12T16:17:39.135Z,99202.06
2023-02-12T16:20:10.536Z,99202.38
2023-02-12T16:22:42.249Z,99204.94
2023-02-12T16:25:32.742Z,99203.19
2023-02-12T16:28:07.954Z,99195.81
2023-02-12T16:30:43.713Z,99201.97
2023-02-12T16:33:46.328Z,99196.09
2023-02-12T16:36:26.534Z,99198.69
2023-02-12T16:39:06.873Z,99203.28
2023-02-12T16:41:57.013Z,99195.41
2023-02-12T16:44:32.368Z,99198.72
2023-02-12T16:47:02.770Z,99190.56
2023-02-12T16:49:31.197Z,99195.41
2023-02-12T16:52:39.197Z,99193.91
2023-02-12T16:55:18.998Z,99192.91
2023-02-12T16:57:47.680Z,99188.34
2023-02-12T17:00:18.652Z,99189.38
2023-02-12T17:02:48.237Z,99184.06
2023-02-12T17:05:19.334Z,99186.63
2023-02-12T17:07:47.665Z,99186.91
2023-02-12T17:10:18.350Z,99184.38
2023-02-12T17:12:52.528Z,99186.16
2023-02-12T17:15:33.890Z,99185.94
2023-02-12T17:18:02.262Z,99184.41
2023-02-12T17:20:30.585Z,99181.88
2023-02-12T17:23:00.389Z,99178.81
2023-02-12T17:25:31.054Z,99177.81
2023-02-12T17:27:59.683Z,99172.72
2023-02-12T17:30:29.853Z,99170.19
2023-02-12T17:32:58.204Z,99174.81
2023-02-12T17:35:26.548Z,99175.09
2023-02-12T17:37:54.904Z,99165.69
2023-02-12T17:40:23.327Z,99170.78
2023-02-12T17:42:51.662Z,99164.69
2023-02-12T17:45:20.108Z,99162.91
2023-02-12T17:47:48.459Z,99164.72
2023-02-12T17:50:19.416Z,99160.16
2023-02-12T17:52:48.115Z,99161.19
2023-02-12T17:55:18.351Z,99167.09
2023-02-12T17:57:46.683Z,99155.63
2023-02-12T18:00:15.845Z,99149.78
2023-02-12T18:02:44.215Z,99149.78
2023-02-12T18:05:12.556Z,99150.78
2023-02-12T18:07:40.952Z,99146.47
2023-02-12T18:10:11.571Z,99146.97
2023-02-12T18:12:40.296Z,99145.22
2023-02-12T18:15:10.231Z,99133.75
2023-02-12T18:17:38.797Z,99137.59
2023-02-12T18:20:07.957Z,99138.66
2023-02-12T18:22:36.340Z,99141.19
2023-02-12T18:25:04.988Z,99143.25
2023-02-12T18:27:33.339Z,99140.19
2023-02-12T18:30:01.722Z,99135.88
2023-02-12T18:32:30.080Z,99125.16
2023-02-12T18:34:58.423Z,99131.53
2023-02-12T18:37:26.784Z,99124.38
2023-02-12T18:39:55.159Z,99134.84
2023-02-12T18:42:23.533Z,99136.38
2023-02-12T18:44:55.550Z,99129.22
2023-02-12T18:47:23.941Z,99129.75
2023-02-12T18:49:52.281Z,99130.28
2023-02-12T18:52:20.651Z,99125.91
2023-02-12T18:54:49.190Z,99125.16
2023-02-12T18:57:17.524Z,99120.81
2023-02-12T18:59:45.861Z,99115.22
2023-02-12T19:02:15.123Z,99118.78
2023-02-12T19:04:43.720Z,99116.50
2023-02-12T19:07:12.150Z,99119.06
2023-02-12T19:09:40.621Z,99111.19
2023-02-12T19:12:09.915Z,99113.72
2023-02-12T19:14:38.208Z,99115.00
2023-02-12T19:17:06.501Z,99114.78
2023-02-12T19:19:34.832Z,99122.41
2023-02-12T19:22:03.685Z,99121.66
2023-02-12T19:24:45.972Z,99117.84
2023-02-12T19:27:15.255Z,99122.69
2023-02-12T19:29:44.343Z,99124.72
2023-02-12T19:32:12.716Z,99124.72
2023-02-12T19:34:42.162Z,99128.81
2023-02-12T19:37:11.832Z,99125.00
2023-02-12T19:39:40.155Z,99112.78
2023-02-12T19:42:08.469Z,99111.78
2023-02-12T19:44:37.620Z,99112.78
2023-02-12T19:47:06.185Z,99106.94
2023-02-12T19:49:34.522Z,99108.75
2023-02-12T19:52:02.853Z,99110.00
2023-02-12T19:54:31.180Z,99117.66
2023-02-12T19:56:59.474Z,99115.38
2023-02-12T19:59:28.447Z,99120.97
2023-02-12T20:01:57.484Z,99118.69
2023-02-12T20:04:26.546Z,99117.94
2023-02-12T20:06:55.046Z,99122.78
2023-02-12T20:09:23.964Z,99122.78
2023-02-12T20:11:52.989Z,99116.41
2023-02-12T20:14:23.515Z,99110.81
2023-02-12T20:16:54.657Z,99111.84
2023-02-12T20:19:33.204Z,99106.75
2023-02-12T20:22:02.554Z,99113.63
2023-02-12T20:24:33.801Z,99109.81
2023-02-12T20:27:03.450Z,99110.84
2023-02-12T20:29:32.065Z,99108.56
2023-02-12T20:32:00.421Z,99111.88
2023-02-12T20:34:29.016Z,99107.56
2023-02-12T20:36:57.876Z,99110.38
2023-02-12T20:39:26.262Z,99112.13
2023-02-12T20:41:54.595Z,99107.03
2023-02-12T20:44:23.574Z,99101.44
2023-02-12T20:46:56.422Z,99105.50
2023-02-12T20:49:26.421Z,99100.44
2023-02-12T20:51:54.911Z,99102.22
2023-02-12T20:56:52.042Z,99099.66
2023-02-12T20:59:21.183Z,99094.56
2023-02-12T21:01:50.041Z,99099.41
2023-02-12T21:04:20.643Z,99101.19
2023-02-12T21:06:49.656Z,99110.88
2023-02-12T21:09:19.576Z,99108.59
2023-02-12T21:11:48.405Z,99110.63
2023-02-12T21:14:25.079Z,99113.94
2023-02-12T21:16:56.060Z,99113.69
2023-02-12T21:19:24.968Z,99116.25
2023-02-12T21:21:53.392Z,99112.41
2023-02-12T21:24:24.968Z,99110.63
2023-02-12T21:26:55.013Z,99112.66
2023-02-12T21:29:24.270Z,99113.94
2023-02-12T21:31:52.962Z,99122.84
2023-02-12T21:34:24.421Z,99115.72
2023-02-12T21:36:55.559Z,99109.38
2023-02-12T21:39:28.273Z,99114.97
2023-02-12T21:42:03.731Z,99114.22
2023-02-12T21:44:36.471Z,99121.31
2023-02-12T21:47:05.098Z,99117.00
2023-02-12T21:49:33.483Z,99122.59
2023-02-12T21:52:04.660Z,99129.47
2023-02-12T21:54:33.529Z,99130.00
2023-02-12T21:57:02.341Z,99131.25
2023-02-12T21:59:32.322Z,99134.56
2023-02-12T22:02:02.711Z,99139.41
2023-02-12T22:04:31.072Z,99147.81
2023-02-12T22:07:03.903Z,99145.50
2023-02-12T22:09:32.679Z,99147.56
2023-02-12T22:12:01.029Z,99150.34
2023-02-12T22:14:29.416Z,99149.59
2023-02-12T22:16:57.760Z,99153.16
2023-02-12T22:19:26.049Z,99157.22
2023-02-12T22:21:54.397Z,99156.47
2023-02-12T22:24:23.080Z,99158.50
2023-02-12T22:26:51.522Z,99162.56
2023-02-12T22:29:20.794Z,99162.56
2023-02-12T22:31:50.509Z,99168.69
2023-02-12T22:34:20.042Z,99165.13
2023-02-12T22:36:48.949Z,99171.47
2023-02-12T22:39:18.535Z,99177.06
2023-02-12T22:41:47.532Z,99177.84
2023-02-12T22:44:18.382Z,99194.63
2023-02-12T22:46:48.747Z,99193.09
2023-02-12T22:49:18.019Z,99202.75
2023-02-12T22:51:46.425Z,99208.34
2023-02-12T22:54:19.570Z,99227.94
2023-02-12T22:56:51.707Z,99226.16
2023-02-12T22:59:20.383Z,99237.34
2023-02-12T23:01:48.696Z,99237.09
2023-02-12T23:04:19.126Z,99243.94
2023-02-12T23:06:48.200Z,99234.78
2023-02-12T23:09:19.862Z,99244.97
2023-02-12T23:11:49.263Z,99245.47
2023-02-12T23:14:18.053Z,99246.75
2023-02-12T23:16:47.074Z,99250.03
2023-02-12T23:19:15.963Z,99253.34
2023-02-12T23:21:44.447Z,99243.16
2023-02-12T23:24:16.323Z,99248.00
2023-02-12T23:26:44.949Z,99248.50
2023-02-12T23:29:13.744Z,99249.78
2023-02-12T23:31:42.188Z,99252.31
2023-02-12T23:34:10.666Z,99254.63
2023-02-12T23:36:38.952Z,99254.34
2023-02-12T23:39:07.319Z,99261.22
2023-02-12T23:41:35.626Z,99258.94
2023-02-12T23:44:04.613Z,99265.78
2023-02-12T23:46:33.324Z,99264.53
2023-02-12T23:49:01.810Z,99269.84
2023-02-12T23:51:30.395Z,99270.63
2023-02-12T23:53:58.842Z,99272.16
2023-02-12T23:56:27.252Z,99279.78
2023-02-12T23:58:58.404Z,99286.13
